Ever Ulysses — 9V7962 — position and weather

sailwx.info

Track history (hours):
 
Tides and Currents Weather Stations Pressure Air Temp Water Temp Dewpoint Dewpoint Depression Visibility Wind Speed Wind Dir Waves Ship Positions

Ever Ulysses

Last reported at 2017-Jan-14 13:26 UTC. Time now 2017-Jan-19 23:40 UTC.
Position N 36°36' E 024°14'.

Length 285 m; draft 12.2 m.

Type: Ship (hazmat cat D). MMSI: 564442000.

Date/timePositionNaut miles runAvg speedWind from/ knotsBaromVisibWave heightAir tempDewpointWater temp
2017-Jan-14 13:26N 36°36' E 024°14'1516.8
2017-Jan-14 12:34N 36°49' E 024°06'1817.7
2017-Jan-14 11:33N 37°05' E 023°58'1717.1
2017-Jan-14 10:34N 37°21' E 023°51'1717.0
2017-Jan-14 09:33N 37°37' E 023°44'1515.1
2017-Jan-14 08:33N 37°51' E 023°36'6 5.7
2017-Jan-14 07:31N 37°57' E 023°36'0 0.0
2017-Jan-14 06:31N 37°57' E 023°36'0 0.0
2017-Jan-14 05:31N 37°57' E 023°36'0 0.0
2017-Jan-14 04:31N 37°57' E 023°36'0 0.0
2017-Jan-14 03:31N 37°57' E 023°36'0 0.0
2017-Jan-13 23:31N 37°57' E 023°36'0 0.0
2017-Jan-13 22:31N 37°57' E 023°36'0 0.0
2017-Jan-13 21:31N 37°57' E 023°36'0 0.0
2017-Jan-13 20:31N 37°57' E 023°36'0 0.0
2017-Jan-13 19:31N 37°57' E 023°36'0 0.0
2017-Jan-13 18:31N 37°57' E 023°36'0 0.0
2017-Jan-13 17:31N 37°57' E 023°36'0 0.0
2017-Jan-13 16:31N 37°57' E 023°36'0 0.0
2017-Jan-13 15:31N 37°57' E 023°36'0 0.0
2017-Jan-13 14:31N 37°57' E 023°36'0 0.0
2017-Jan-13 13:31N 37°57' E 023°36'0 0.0
2017-Jan-13 12:31N 37°57' E 023°36'0 0.0
2017-Jan-13 11:31N 37°57' E 023°36'0 0.0
2017-Jan-13 10:31N 37°57' E 023°36'0 0.0
2017-Jan-13 09:31N 37°57' E 023°36'0 0.0
2017-Jan-13 08:31N 37°57' E 023°36'0 0.0
2017-Jan-13 07:31N 37°57' E 023°36'0 0.0
2017-Jan-13 06:31N 37°57' E 023°36'0 0.0
2017-Jan-13 05:31N 37°57' E 023°36'0 0.0
2017-Jan-13 04:31N 37°57' E 023°36'0 0.0
2017-Jan-13 03:31N 37°57' E 023°36'0 0.0
2017-Jan-13 02:31N 37°57' E 023°36'0 0.0
2017-Jan-13 01:31N 37°57' E 023°36'0 0.0
2017-Jan-13 00:31N 37°57' E 023°36'0 0.0
2017-Jan-12 23:31N 37°57' E 023°36'0 0.0
2017-Jan-12 22:31N 37°57' E 023°36'0 0.0
2017-Jan-12 21:31N 37°57' E 023°36'0 0.0
2017-Jan-12 20:31N 37°57' E 023°36'0 0.0
2017-Jan-12 19:31N 37°57' E 023°36'0 0.0
2017-Jan-12 18:31N 37°57' E 023°36'0 0.0
2017-Jan-12 17:31N 37°57' E 023°36'0 0.0
2017-Jan-12 16:31N 37°57' E 023°36'0 0.0
2017-Jan-12 15:31N 37°57' E 023°36'0 0.0
2017-Jan-12 14:31N 37°57' E 023°36'0 0.0
2017-Jan-12 13:28N 37°57' E 023°36'0 0.0
2017-Jan-12 12:31N 37°57' E 023°36'0 0.0
2017-Jan-12 11:31N 37°57' E 023°36'0 0.0
2017-Jan-12 10:31N 37°57' E 023°36'0 0.0
2017-Jan-12 09:31N 37°57' E 023°36'0 0.0
2017-Jan-12 08:33N 37°57' E 023°36'2 2.5
2017-Jan-12 07:33N 37°55' E 023°36'1 1.1
2017-Jan-12 06:33N 37°54' E 023°35'1 0.6
2017-Jan-12 05:33N 37°54' E 023°36'1 1.2
2017-Jan-12 04:33N 37°53' E 023°37'1010.4
2017-Jan-12 03:33N 37°44' E 023°43'1211.5
2017-Jan-12 02:32N 37°33' E 023°48'1411.5
2017-Jan-12 01:17N 37°22' E 023°60'2 2.3
2017-Jan-12 00:32N 37°20' E 024°00'  
2017-Jan-04 17:23N 31°52' E 034°38'  
Track history (hours):
 
Tides and Currents Weather Stations Pressure Air Temp Water Temp Dewpoint Dewpoint Depression Visibility Wind Speed Wind Dir Waves Ship Positions

Ever Ulysses

Last reported at 2017-Jan-14 13:26 UTC. Time now 2017-Jan-19 23:40 UTC.
Position N 36°36' E 024°14'.

Length 285 m; draft 12.2 m.

Type: Ship (hazmat cat D). MMSI: 564442000.

Date/timePositionNaut miles runAvg speedWind from/ knotsBaromVisibWave heightAir tempDewpointWater temp
2017-Jan-14 13:26N 36°36' E 024°14'1516.8
2017-Jan-14 12:34N 36°49' E 024°06'1817.7
2017-Jan-14 11:33N 37°05' E 023°58'1717.1
2017-Jan-14 10:34N 37°21' E 023°51'1717.0
2017-Jan-14 09:33N 37°37' E 023°44'1515.1
2017-Jan-14 08:33N 37°51' E 023°36'6 5.7
2017-Jan-14 07:31N 37°57' E 023°36'0 0.0
2017-Jan-14 06:31N 37°57' E 023°36'0 0.0
2017-Jan-14 05:31N 37°57' E 023°36'0 0.0
2017-Jan-14 04:31N 37°57' E 023°36'0 0.0
2017-Jan-14 03:31N 37°57' E 023°36'0 0.0
2017-Jan-13 23:31N 37°57' E 023°36'0 0.0
2017-Jan-13 22:31N 37°57' E 023°36'0 0.0
2017-Jan-13 21:31N 37°57' E 023°36'0 0.0
2017-Jan-13 20:31N 37°57' E 023°36'0 0.0
2017-Jan-13 19:31N 37°57' E 023°36'0 0.0
2017-Jan-13 18:31N 37°57' E 023°36'0 0.0
2017-Jan-13 17:31N 37°57' E 023°36'0 0.0
2017-Jan-13 16:31N 37°57' E 023°36'0 0.0
2017-Jan-13 15:31N 37°57' E 023°36'0 0.0
2017-Jan-13 14:31N 37°57' E 023°36'0 0.0
2017-Jan-13 13:31N 37°57' E 023°36'0 0.0
2017-Jan-13 12:31N 37°57' E 023°36'0 0.0
2017-Jan-13 11:31N 37°57' E 023°36'0 0.0
2017-Jan-13 10:31N 37°57' E 023°36'0 0.0
2017-Jan-13 09:31N 37°57' E 023°36'0 0.0
2017-Jan-13 08:31N 37°57' E 023°36'0 0.0
2017-Jan-13 07:31N 37°57' E 023°36'0 0.0
2017-Jan-13 06:31N 37°57' E 023°36'0 0.0
2017-Jan-13 05:31N 37°57' E 023°36'0 0.0
2017-Jan-13 04:31N 37°57' E 023°36'0 0.0
2017-Jan-13 03:31N 37°57' E 023°36'0 0.0
2017-Jan-13 02:31N 37°57' E 023°36'0 0.0
2017-Jan-13 01:31N 37°57' E 023°36'0 0.0
2017-Jan-13 00:31N 37°57' E 023°36'0 0.0
2017-Jan-12 23:31N 37°57' E 023°36'0 0.0
2017-Jan-12 22:31N 37°57' E 023°36'0 0.0
2017-Jan-12 21:31N 37°57' E 023°36'0 0.0
2017-Jan-12 20:31N 37°57' E 023°36'0 0.0
2017-Jan-12 19:31N 37°57' E 023°36'0 0.0
2017-Jan-12 18:31N 37°57' E 023°36'0 0.0
2017-Jan-12 17:31N 37°57' E 023°36'0 0.0
2017-Jan-12 16:31N 37°57' E 023°36'0 0.0
2017-Jan-12 15:31N 37°57' E 023°36'0 0.0
2017-Jan-12 14:31N 37°57' E 023°36'0 0.0
2017-Jan-12 13:28N 37°57' E 023°36'0 0.0
2017-Jan-12 12:31N 37°57' E 023°36'0 0.0
2017-Jan-12 11:31N 37°57' E 023°36'0 0.0
2017-Jan-12 10:31N 37°57' E 023°36'0 0.0
2017-Jan-12 09:31N 37°57' E 023°36'0 0.0
2017-Jan-12 08:33N 37°57' E 023°36'2 2.5
2017-Jan-12 07:33N 37°55' E 023°36'1 1.1
2017-Jan-12 06:33N 37°54' E 023°35'1 0.6
2017-Jan-12 05:33N 37°54' E 023°36'1 1.2
2017-Jan-12 04:33N 37°53' E 023°37'1010.4
2017-Jan-12 03:33N 37°44' E 023°43'1211.5
2017-Jan-12 02:32N 37°33' E 023°48'1411.5
2017-Jan-12 01:17N 37°22' E 023°60'2 2.3
2017-Jan-12 00:32N 37°20' E 024°00'  
2017-Jan-04 17:23N 31°52' E 034°38'  

Dump ship's entire track history